Weather at Cincinnati Northern Kentucky International Airport

Public forecast

Using degrees Fahrenheit for public forecast. Weather courtesy of forecast.io.

Current aviation weather report (METAR) for Cincinnati Northern Kentucky International Airport

Report is more than 6 hours old.

2022/11/14 14:52 (retrieved 2 years ago)

KCVG 141452Z 09008KT 10SM FEW030 SCT250 03/M04 A3036 RMK AO2 SLP286 T00331039 50002

Aviation forecast (TAF) for Cincinnati Northern Kentucky International Airport

Forecast is more than 12 hours old.

2023/02/22 20:15 Ammendment (retrieved 1 year ago)

TAF AMD KCVG 222012Z 2220/2324 21021G35KT P6SM SCT060 OVC250 FM230300 23017G32KT 6SM SHRA BR BKN025 FM230600 24013G26KT P6SM VCSH BKN050 FM231500 24018G27KT P6SM FEW250